Time;durP1;ratioP1;P1;durP2;ratioP2;P2;SDS_P1;SDS_P2;PMS_P1;PMS_P2;Temp;Humidity;BMP_temperature;BMP_pressure;BME280_temperature;BME280_humidity;BME280_pressure;Samples;Min_cycle;Max_cycle;Signal;HPM_P1;HPM_P2
2023/01/04 00:00:14;;;;;;;;;;;;;;;9.06;93.42;101985.06;5062676;28;19920;-45
2023/01/04 00:02:39;;;;;;;;;;;;;;;9.06;93.73;101982.50;5060350;28;20887;-48
2023/01/04 00:05:05;;;;;;;;;;;;;;;9.05;94.22;101973.94;5072538;28;19931;-46
2023/01/04 00:07:30;;;;;;;;;;;;;;;9.04;94.64;101971.25;5069737;28;20325;-44
2023/01/04 00:09:55;;;;;;;;;;;;;;;9.03;95.27;101972.06;5073145;28;19924;-45
2023/01/04 00:12:21;;;;;;;;;;;;;;;9.01;95.22;101959.16;5079019;28;19985;-43
2023/01/04 00:14:46;;;;;;;;;;;;;;;9.01;95.20;101956.59;5072230;28;19966;-46
2023/01/04 00:17:11;;;;;;;;;;;;;;;9.01;96.44;101958.28;5074383;28;19975;-45
2023/01/04 00:19:37;;;;;;;;;;;;;;;9.00;96.39;101954.84;5074771;28;20345;-48
2023/01/04 00:22:02;;;;;;;;;;;;;;;9.00;97.02;101947.16;5080069;28;20300;-45
2023/01/04 00:24:27;;;;;;;;;;;;;;;8.99;97.65;101944.50;5069749;28;19924;-45
2023/01/04 00:26:52;;;;;;;;;;;;;;;8.98;98.05;101935.94;5061139;28;20408;-43
2023/01/04 00:29:18;;;;;;;;;;;;;;;8.98;97.65;101927.31;5064470;28;19926;-47
2023/01/04 00:31:43;;;;;;;;;;;;;;;8.98;97.78;101923.13;5065220;28;19920;-46
2023/01/04 00:34:10;;;;;;;;;;;;;;;8.99;98.07;101922.31;5069666;28;20266;-45
2023/01/04 00:36:35;;;;;;;;;;;;;;;8.99;98.49;101913.72;5063309;28;19912;-47
2023/01/04 00:39:06;;;;;;;;;;;;;;;8.99;98.53;101913.72;5071367;28;19916;-46
2023/01/04 00:41:42;;;;;;;;;;;;;;;8.99;98.70;101898.34;5066158;28;19920;-47
2023/01/04 00:44:08;;;;;;;;;;;;;;;8.99;98.87;101899.22;5058584;28;19923;-43
2023/01/04 00:46:33;;;;;;;;;;;;;;;8.98;99.58;101892.31;5059385;28;19916;-48
2023/01/04 00:48:59;;;;;;;;;;;;;;;8.98;99.83;101894.88;5063324;28;21480;-47
2023/01/04 00:51:24;;;;;;;;;;;;;;;8.99;99.71;101894.09;5063143;28;20277;-46
2023/01/04 00:53:50;;;;;;;;;;;;;;;9.00;100.00;101884.69;5067264;28;19920;-48
2023/01/04 00:56:15;;;;;;;;;;;;;;;9.00;100.00;101885.56;5066464;28;19943;-45
2023/01/04 00:58:40;;;;;;;;;;;;;;;9.02;100.00;101873.69;5078773;28;19917;-46
2023/01/04 01:01:06;;;;;;;;;;;;;;;9.02;100.00;101875.38;5069234;28;19928;-44
2023/01/04 01:03:32;;;;;;;;;;;;;;;9.01;100.00;101860.81;5078906;28;19912;-46
2023/01/04 01:06:01;;;;;;;;;;;;;;;9.03;100.00;101864.31;5075691;28;20285;-46
2023/01/04 01:08:26;;;;;;;;;;;;;;;9.03;100.00;101865.19;5076025;28;20560;-45
2023/01/04 01:10:52;;;;;;;;;;;;;;;9.05;100.00;101857.59;5066222;28;19916;-43
2023/01/04 01:13:18;;;;;;;;;;;;;;;9.05;100.00;101863.59;5066414;28;19912;-47
2023/01/04 01:15:43;;;;;;;;;;;;;;;9.05;100.00;101848.22;5062763;28;19927;-44
2023/01/04 01:18:08;;;;;;;;;;;;;;;9.06;100.00;101851.66;5064252;28;19952;-45
2023/01/04 01:20:34;;;;;;;;;;;;;;;9.08;100.00;101847.47;5063264;28;19928;-47
2023/01/04 01:22:59;;;;;;;;;;;;;;;9.09;100.00;101854.34;5060612;28;19916;-45
2023/01/04 01:25:24;;;;;;;;;;;;;;;9.10;100.00;101851.88;5061979;28;19949;-45
2023/01/04 01:27:49;;;;;;;;;;;;;;;9.10;100.00;101846.75;5060320;28;19924;-45
2023/01/04 01:30:15;;;;;;;;;;;;;;;9.09;100.00;101844.97;5061704;28;20066;-44
2023/01/04 01:32:40;;;;;;;;;;;;;;;9.11;100.00;101842.50;5064603;28;20381;-44
2023/01/04 01:35:05;;;;;;;;;;;;;;;9.12;100.00;101834.88;5068896;28;20297;-47
2023/01/04 01:37:30;;;;;;;;;;;;;;;9.13;100.00;101843.44;5068224;28;20285;-45
2023/01/04 01:39:56;;;;;;;;;;;;;;;9.16;100.00;101822.19;5072090;28;20292;-46
2023/01/04 01:42:22;;;;;;;;;;;;;;;9.16;100.00;101827.31;5078647;28;20046;-46
2023/01/04 01:44:56;;;;;;;;;;;;;;;9.18;100.00;101818.91;5068690;28;19931;-46
2023/01/04 01:47:24;;;;;;;;;;;;;;;9.19;100.00;101822.34;5070972;28;20373;-45
2023/01/04 01:49:51;;;;;;;;;;;;;;;9.21;100.00;101825.84;5073123;28;20015;-46
2023/01/04 01:52:20;;;;;;;;;;;;;;;9.21;100.00;101828.44;5064845;28;20381;-45
2023/01/04 01:54:48;;;;;;;;;;;;;;;9.21;100.00;101823.28;5064064;28;19912;-44
2023/01/04 01:57:17;;;;;;;;;;;;;;;9.20;100.00;101830.13;5068757;28;19921;-45
2023/01/04 01:59:43;;;;;;;;;;;;;;;9.20;100.00;101816.41;5066792;28;19913;-45
2023/01/04 02:02:09;;;;;;;;;;;;;;;9.21;100.00;101820.72;5067021;28;19924;-47
2023/01/04 02:04:35;;;;;;;;;;;;;;;9.22;100.00;101832.75;5065882;27;20392;-47
2023/01/04 02:07:01;;;;;;;;;;;;;;;9.22;100.00;101825.03;5071483;28;20009;-47
2023/01/04 02:09:29;;;;;;;;;;;;;;;9.23;100.00;101825.16;5068191;28;19983;-46
2023/01/04 02:11:54;;;;;;;;;;;;;;;9.24;100.00;101832.03;5070152;28;20007;-45
2023/01/04 02:14:25;;;;;;;;;;;;;;;9.25;100.00;101820.06;5063196;28;20003;-47
2023/01/04 02:17:09;;;;;;;;;;;;;;;9.26;100.00;101829.53;5071691;28;19916;-47
2023/01/04 02:19:52;;;;;;;;;;;;;;;9.29;100.00;101814.28;5068273;28;19920;-47
2023/01/04 02:22:18;;;;;;;;;;;;;;;9.30;100.00;101816.06;5063206;28;19920;-43
2023/01/04 02:25:02;;;;;;;;;;;;;;;9.30;100.00;101810.91;5066504;28;19973;-45
2023/01/04 02:27:46;;;;;;;;;;;;;;;9.31;100.00;101784.44;5067026;28;20011;-45
2023/01/04 02:30:29;;;;;;;;;;;;;;;9.32;100.00;101805.03;5064025;28;19920;-47
2023/01/04 02:33:04;;;;;;;;;;;;;;;9.33;100.00;101806.78;5069239;28;19927;-47
2023/01/04 02:35:32;;;;;;;;;;;;;;;9.33;100.00;101791.41;5073454;28;19966;-45
2023/01/04 02:38:00;;;;;;;;;;;;;;;9.34;100.00;101790.63;5069099;28;19966;-44
2023/01/04 02:40:25;;;;;;;;;;;;;;;9.35;100.00;101776.09;5068564;28;19918;-44
2023/01/04 02:46:07;;;;;;;;;;;;;;;9.39;100.00;101783.09;5065044;28;19956;-46
2023/01/04 02:51:25;;;;;;;;;;;;;;;9.40;100.00;101764.31;5068298;28;19955;-46
2023/01/04 02:53:50;;;;;;;;;;;;;;;9.42;100.00;101761.84;5059995;28;20003;-43
2023/01/04 02:56:34;;;;;;;;;;;;;;;9.42;100.00;101762.72;5076144;28;20384;-46
2023/01/04 02:59:08;;;;;;;;;;;;;;;9.45;100.00;101762.84;5076306;28;20258;-46
2023/01/04 03:07:45;;;;;;;;;;;;;;;9.49;100.00;101753.63;5078970;28;19919;-47
2023/01/04 03:10:49;;;;;;;;;;;;;;;9.52;100.00;101744.34;5070517;28;20364;-46
2023/01/04 03:13:17;;;;;;;;;;;;;;;9.53;100.00;101748.72;5014371;28;19943;-44
2023/01/04 03:15:45;;;;;;;;;;;;;;;9.55;100.00;101747.09;5016218;28;20409;-47
2023/01/04 03:18:15;;;;;;;;;;;;;;;9.55;100.00;101729.13;5037343;28;20349;-44
2023/01/04 03:20:42;;;;;;;;;;;;;;;9.55;100.00;101744.53;5071352;28;19921;-46
2023/01/04 03:37:22;;;;;;;;;;;;;;;9.63;100.00;101721.75;5059858;28;19931;-43
2023/01/04 03:48:29;;;;;;;;;;;;;;;9.70;100.00;101710.06;5067779;28;19922;-45
2023/01/04 03:51:04;;;;;;;;;;;;;;;9.70;100.00;101682.69;5064229;28;19920;-43
2023/01/04 03:53:32;;;;;;;;;;;;;;;9.73;100.00;101675.13;5063736;28;19936;-48
2023/01/04 03:55:57;;;;;;;;;;;;;;;9.76;100.00;101680.41;5063236;28;19959;-46
2023/01/04 03:58:23;;;;;;;;;;;;;;;9.79;100.00;101674.53;5063446;28;20327;-44
2023/01/04 04:00:49;;;;;;;;;;;;;;;9.80;100.00;101681.44;5062523;28;20000;-47
2023/01/04 04:03:14;;;;;;;;;;;;;;;9.80;100.00;101673.72;5065845;28;19920;-45
2023/01/04 04:08:27;;;;;;;;;;;;;;;9.82;100.00;101680.66;5064993;28;19926;-45
2023/01/04 04:11:28;;;;;;;;;;;;;;;9.85;100.00;101677.38;5061363;28;20020;-45
2023/01/04 04:13:42;;;;;;;;;;;;;;;9.86;100.00;101663.72;5067363;28;20010;-44
2023/01/04 04:16:08;;;;;;;;;;;;;;;9.87;100.00;101675.75;5066805;28;20057;-46
2023/01/04 04:18:33;;;;;;;;;;;;;;;9.88;100.00;101660.38;5064545;28;19924;-47
2023/01/04 04:20:58;;;;;;;;;;;;;;;9.90;100.00;101660.47;5067863;28;19923;-46
2023/01/04 04:23:23;;;;;;;;;;;;;;;9.91;100.00;101652.81;5055955;28;20392;-46
2023/01/04 04:25:48;;;;;;;;;;;;;;;9.93;100.00;101660.59;5064228;28;20673;-45
2023/01/04 04:28:14;;;;;;;;;;;;;;;9.96;100.00;101657.28;5064771;28;20007;-45
2023/01/04 04:30:39;;;;;;;;;;;;;;;9.95;100.00;101653.84;5063228;28;20261;-46
2023/01/04 04:33:04;;;;;;;;;;;;;;;9.96;100.00;101645.31;5061765;28;20355;-45
2023/01/04 04:35:30;;;;;;;;;;;;;;;9.97;100.00;101634.22;5065456;28;20023;-47
2023/01/04 04:37:55;;;;;;;;;;;;;;;9.98;100.00;101629.97;5062675;28;20373;-45
2023/01/04 04:43:06;;;;;;;;;;;;;;;10.01;100.00;101633.56;5064774;28;20054;-46
2023/01/04 04:45:31;;;;;;;;;;;;;;;10.02;100.00;101627.59;5059728;28;19923;-46
2023/01/04 04:47:57;;;;;;;;;;;;;;;10.03;100.00;101628.47;5065751;28;19920;-48
2023/01/04 04:50:22;;;;;;;;;;;;;;;10.05;100.00;101629.41;5062088;28;19989;-45
2023/01/04 04:52:47;;;;;;;;;;;;;;;10.05;100.00;101625.16;5066419;28;19978;-47
2023/01/04 04:55:12;;;;;;;;;;;;;;;10.07;100.00;101627.78;5064767;28;20009;-47
2023/01/04 04:57:38;;;;;;;;;;;;;;;10.08;100.00;101619.28;5064327;28;19927;-48
2023/01/04 05:00:03;;;;;;;;;;;;;;;10.10;100.00;101617.63;5059656;28;19921;-46
2023/01/04 05:02:28;;;;;;;;;;;;;;;10.12;100.00;101616.00;5061186;28;19916;-44
2023/01/04 05:04:53;;;;;;;;;;;;;;;10.13;100.00;101610.94;5064100;28;19935;-48
2023/01/04 05:07:19;;;;;;;;;;;;;;;10.15;100.00;101599.03;5067028;28;19916;-48
2023/01/04 05:09:44;;;;;;;;;;;;;;;10.16;100.00;101605.91;5063110;28;19921;-45
2023/01/04 05:14:55;;;;;;;;;;;;;;;10.18;100.00;101603.41;5063698;28;19923;-44
2023/01/04 05:17:20;;;;;;;;;;;;;;;10.20;100.00;101596.66;5068050;28;19916;-44
2023/01/04 05:19:46;;;;;;;;;;;;;;;10.21;100.00;101594.13;5060760;28;19931;-45
2023/01/04 05:22:11;;;;;;;;;;;;;;;10.23;100.00;101598.47;5064853;28;20374;-43
2023/01/04 05:24:36;;;;;;;;;;;;;;;10.25;100.00;101597.72;5059680;28;20627;-47
2023/01/04 05:27:01;;;;;;;;;;;;;;;10.25;100.00;101586.56;5063845;28;20309;-46
2023/01/04 05:32:11;;;;;;;;;;;;;;;10.27;100.00;101585.84;5058676;28;19947;-45
2023/01/04 05:34:36;;;;;;;;;;;;;;;10.29;100.00;101576.47;5064635;28;19920;-45
2023/01/04 05:37:01;;;;;;;;;;;;;;;10.32;100.00;101588.59;5069488;28;19920;-45
2023/01/04 05:39:26;;;;;;;;;;;;;;;10.33;100.00;101574.94;5064458;28;19924;-45
2023/01/04 05:44:35;;;;;;;;;;;;;;;10.34;100.00;101566.41;5069778;28;20398;-47
2023/01/04 05:47:00;;;;;;;;;;;;;;;10.36;100.00;101567.31;5064864;28;19943;-45
2023/01/04 05:49:26;;;;;;;;;;;;;;;10.36;100.00;101581.06;5079469;28;19923;-46
2023/01/04 05:51:51;;;;;;;;;;;;;;;10.37;100.00;101561.34;5066457;28;19973;-44
2023/01/04 05:54:16;;;;;;;;;;;;;;;10.38;100.00;101552.84;5077301;28;19942;-47
2023/01/04 05:56:41;;;;;;;;;;;;;;;10.38;100.00;101558.00;5070113;28;19916;-44
2023/01/04 05:59:07;;;;;;;;;;;;;;;10.39;100.00;101549.47;5073432;28;19962;-46
2023/01/04 06:01:32;;;;;;;;;;;;;;;10.41;100.00;101553.84;5071715;28;19935;-47
2023/01/04 06:03:57;;;;;;;;;;;;;;;10.40;100.00;101551.22;5073312;28;20291;-44
2023/01/04 06:06:22;;;;;;;;;;;;;;;10.42;100.00;101558.16;5066187;28;19928;-44
2023/01/04 06:08:48;;;;;;;;;;;;;;;10.45;100.00;101549.72;5071095;28;20372;-45
2023/01/04 06:11:13;;;;;;;;;;;;;;;10.44;100.00;101559.13;5063592;28;20339;-47
2023/01/04 06:13:38;;;;;;;;;;;;;;;10.46;100.00;101559.16;5062748;28;19999;-43
2023/01/04 06:16:03;;;;;;;;;;;;;;;10.48;100.00;101558.41;5071389;28;20276;-43
2023/01/04 06:18:29;;;;;;;;;;;;;;;10.50;100.00;101558.47;5065820;28;20023;-46
2023/01/04 06:20:54;;;;;;;;;;;;;;;10.53;100.00;101539.72;5064874;28;19921;-45
2023/01/04 06:23:19;;;;;;;;;;;;;;;10.53;100.00;101538.00;5063977;28;19962;-44
2023/01/04 06:25:44;;;;;;;;;;;;;;;10.54;100.00;101537.19;5072825;28;20023;-43
2023/01/04 06:28:10;;;;;;;;;;;;;;;10.55;100.00;101544.09;5066353;28;19917;-45
2023/01/04 06:30:35;;;;;;;;;;;;;;;10.56;100.00;101545.88;5069738;28;20364;-47
2023/01/04 06:33:00;;;;;;;;;;;;;;;10.57;100.00;101532.19;5061849;28;20281;-45
2023/01/04 06:35:25;;;;;;;;;;;;;;;10.59;100.00;101542.53;5066444;28;19916;-45
2023/01/04 06:37:51;;;;;;;;;;;;;;;10.60;100.00;101533.97;5069173;28;20295;-43
2023/01/04 06:40:16;;;;;;;;;;;;;;;10.60;100.00;101544.28;5066037;28;19916;-47
2023/01/04 06:42:44;;;;;;;;;;;;;;;10.61;100.00;101556.31;5065000;28;19935;-46
2023/01/04 06:45:09;;;;;;;;;;;;;;;10.63;100.00;101554.69;5060792;28;19920;-45
2023/01/04 06:47:35;;;;;;;;;;;;;;;10.63;100.00;101555.56;5072279;28;19939;-45
2023/01/04 06:50:00;;;;;;;;;;;;;;;10.65;100.00;101542.75;5065646;28;20010;-48
2023/01/04 06:52:25;;;;;;;;;;;;;;;10.65;100.00;101550.47;5065035;28;19952;-45
2023/01/04 06:54:51;;;;;;;;;;;;;;;10.66;100.00;101557.38;5068234;28;19916;-45
2023/01/04 06:57:16;;;;;;;;;;;;;;;10.68;100.00;101558.31;5075709;28;19924;-45
2023/01/04 06:59:41;;;;;;;;;;;;;;;10.68;100.00;101548.91;5074878;28;19927;-45
2023/01/04 07:02:07;;;;;;;;;;;;;;;10.71;100.00;101528.44;5075613;28;19959;-44
2023/01/04 07:04:32;;;;;;;;;;;;;;;10.72;100.00;101552.47;5070276;28;19927;-43
2023/01/04 07:06:57;;;;;;;;;;;;;;;10.73;100.00;101546.50;5075998;28;19920;-44
2023/01/04 07:09:22;;;;;;;;;;;;;;;10.73;100.00;101542.22;5067698;28;20311;-43
2023/01/04 07:11:47;;;;;;;;;;;;;;;10.75;100.00;101539.72;5072515;28;20007;-45
2023/01/04 07:14:13;;;;;;;;;;;;;;;10.78;100.00;101533.81;5071226;28;20003;-46
2023/01/04 07:16:38;;;;;;;;;;;;;;;10.79;100.00;101538.13;5077263;28;19913;-44
2023/01/04 07:19:03;;;;;;;;;;;;;;;10.79;100.00;101525.28;5075952;28;19921;-46
2023/01/04 07:21:28;;;;;;;;;;;;;;;10.81;100.00;101521.94;5080398;28;19952;-44
2023/01/04 07:23:54;;;;;;;;;;;;;;;10.81;100.00;101529.66;5075455;28;19912;-45
2023/01/04 07:26:19;;;;;;;;;;;;;;;10.82;100.00;101518.56;5072620;28;19923;-45
2023/01/04 07:31:28;;;;;;;;;;;;;;;10.86;100.00;101519.53;5064374;28;19923;-46
2023/01/04 07:33:53;;;;;;;;;;;;;;;10.87;100.00;101505.88;5064902;28;19916;-45
2023/01/04 07:36:19;;;;;;;;;;;;;;;10.88;100.00;101505.03;5062917;28;19923;-44
2023/01/04 07:38:44;;;;;;;;;;;;;;;10.90;100.00;101505.97;5076456;28;19995;-44
2023/01/04 07:41:09;;;;;;;;;;;;;;;10.90;100.00;101503.41;5062579;28;20389;-46
2023/01/04 07:43:34;;;;;;;;;;;;;;;10.93;100.00;101503.53;5065265;28;19924;-48
2023/01/04 07:46:00;;;;;;;;;;;;;;;10.94;100.00;101498.44;5064235;28;19967;-45
2023/01/04 07:48:28;;;;;;;;;;;;;;;10.96;100.00;101473.63;5064696;28;19935;-46
2023/01/04 07:50:53;;;;;;;;;;;;;;;10.97;100.00;101479.63;5066893;28;20328;-45
2023/01/04 07:53:18;;;;;;;;;;;;;;;11.01;100.00;101473.78;5061924;28;19917;-45
2023/01/04 07:55:44;;;;;;;;;;;;;;;11.01;100.00;101477.25;5061335;28;19970;-45
2023/01/04 07:58:09;;;;;;;;;;;;;;;11.02;100.00;101483.25;5062786;28;19977;-45
2023/01/04 08:00:34;;;;;;;;;;;;;;;11.04;100.00;101504.75;5066457;28;19964;-47
2023/01/04 08:02:59;;;;;;;;;;;;;;;11.05;100.00;101470.50;5061125;28;19912;-44
2023/01/04 08:05:25;;;;;;;;;;;;;;;11.07;100.00;101474.00;5060489;28;19925;-44
2023/01/04 08:07:50;;;;;;;;;;;;;;;11.09;100.00;101468.91;5064609;28;19938;-46
2023/01/04 08:10:15;;;;;;;;;;;;;;;11.11;100.00;101486.19;5071651;28;19920;-48
2023/01/04 08:12:41;;;;;;;;;;;;;;;11.11;100.00;101478.44;5067344;28;19919;-44
2023/01/04 08:15:06;;;;;;;;;;;;;;;11.12;100.00;101489.63;5058084;28;19917;-45
2023/01/04 08:17:31;;;;;;;;;;;;;;;11.14;100.00;101498.25;5064552;28;19938;-47
2023/01/04 08:19:57;;;;;;;;;;;;;;;11.15;100.00;101488.00;5067295;28;20311;-47
2023/01/04 08:22:22;;;;;;;;;;;;;;;11.16;100.00;101502.66;5066255;28;19919;-44
2023/01/04 08:24:47;;;;;;;;;;;;;;;11.18;100.00;101495.00;5059964;28;19924;-44
2023/01/04 08:27:12;;;;;;;;;;;;;;;11.18;100.00;101493.28;5058826;28;20291;-43
2023/01/04 08:29:38;;;;;;;;;;;;;;;11.19;100.00;101497.59;5064370;28;19919;-44
2023/01/04 08:32:03;;;;;;;;;;;;;;;11.20;100.00;101507.06;5068076;28;19923;-43
2023/01/04 08:34:28;;;;;;;;;;;;;;;11.21;100.00;101493.38;5060002;28;19927;-43
2023/01/04 08:36:54;;;;;;;;;;;;;;;11.23;100.00;101499.47;5064534;28;19925;-42
2023/01/04 08:39:20;;;;;;;;;;;;;;;11.24;100.00;101493.50;5063999;28;19923;-43
2023/01/04 08:41:52;;;;;;;;;;;;;;;11.25;100.00;101500.41;5069604;28;19946;-43
2023/01/04 08:44:18;;;;;;;;;;;;;;;11.27;100.00;101503.91;5076253;28;19921;-44
2023/01/04 08:46:44;;;;;;;;;;;;;;;11.30;100.00;101504.84;5096728;27;19943;-46
2023/01/04 08:49:09;;;;;;;;;;;;;;;11.31;100.00;101509.16;5069870;28;19912;-44
2023/01/04 08:51:34;;;;;;;;;;;;;;;11.32;100.00;101511.78;5065746;28;19916;-44
2023/01/04 08:54:00;;;;;;;;;;;;;;;11.32;100.00;101498.91;5069675;28;20396;-43
2023/01/04 08:56:25;;;;;;;;;;;;;;;11.35;100.00;101511.03;5076571;28;19924;-44
2023/01/04 08:58:50;;;;;;;;;;;;;;;11.34;100.00;101502.41;5068713;28;19917;-44
2023/01/04 09:01:15;;;;;;;;;;;;;;;11.36;100.00;101505.94;5060228;28;19928;-48
2023/01/04 09:03:41;;;;;;;;;;;;;;;11.36;100.00;101529.09;5067580;28;19916;-44
2023/01/04 09:06:07;;;;;;;;;;;;;;;11.39;100.00;101512.88;5064728;28;20404;-46
2023/01/04 09:08:33;;;;;;;;;;;;;;;11.40;100.00;101517.19;5069330;28;19919;-44
2023/01/04 09:11:03;;;;;;;;;;;;;;;11.40;100.00;101501.75;5058938;28;19912;-44
2023/01/04 09:13:28;;;;;;;;;;;;;;;11.42;100.00;101500.13;5065617;28;20049;-45
2023/01/04 09:15:53;;;;;;;;;;;;;;;11.43;100.00;101486.41;5063324;28;19999;-47
2023/01/04 09:18:18;;;;;;;;;;;;;;;11.44;100.00;101491.63;5065593;28;19927;-45
2023/01/04 09:20:44;;;;;;;;;;;;;;;11.45;100.00;101507.94;5063476;28;19920;-44
2023/01/04 09:23:09;;;;;;;;;;;;;;;11.45;100.00;101490.78;5064165;28;19920;-46
2023/01/04 09:25:37;;;;;;;;;;;;;;;11.45;100.00;101495.06;5066127;28;20034;-47
2023/01/04 09:28:02;;;;;;;;;;;;;;;11.46;100.00;101491.66;5066385;28;19947;-48
2023/01/04 09:30:30;;;;;;;;;;;;;;;11.46;100.00;101495.09;5060896;28;19960;-44
2023/01/04 09:32:55;;;;;;;;;;;;;;;11.46;100.00;101499.38;5063267;28;19935;-44
2023/01/04 09:35:21;;;;;;;;;;;;;;;11.47;100.00;101503.75;5064668;28;19917;-44
2023/01/04 09:37:46;;;;;;;;;;;;;;;11.47;100.00;101504.63;5065499;28;20321;-44
2023/01/04 09:40:18;;;;;;;;;;;;;;;11.48;100.00;101501.22;5069012;28;20359;-44
2023/01/04 09:42:44;;;;;;;;;;;;;;;11.48;100.00;101510.63;5063930;28;19912;-45
2023/01/04 09:45:17;;;;;;;;;;;;;;;11.48;100.00;101508.94;5067007;28;20085;-45
2023/01/04 09:47:48;;;;;;;;;;;;;;;11.47;100.00;101504.63;5067541;28;20491;-43
2023/01/04 09:50:16;;;;;;;;;;;;;;;11.48;100.00;101510.63;5076101;28;19911;-47
2023/01/04 09:52:50;;;;;;;;;;;;;;;11.49;100.00;101499.50;5066591;28;19916;-44
2023/01/04 09:55:20;;;;;;;;;;;;;;;11.49;100.00;101491.78;5068228;28;19959;-47
2023/01/04 09:57:52;;;;;;;;;;;;;;;11.49;100.00;101505.53;5064813;28;19986;-43
2023/01/04 10:00:20;;;;;;;;;;;;;;;11.50;100.00;101493.53;5060733;28;20379;-43
2023/01/04 10:02:51;;;;;;;;;;;;;;;11.51;100.00;101503.00;5070399;28;20393;-43
2023/01/04 10:05:18;;;;;;;;;;;;;;;11.52;100.00;101504.75;5063087;28;19919;-45
2023/01/04 10:07:43;;;;;;;;;;;;;;;11.52;100.00;101507.31;5068030;28;20386;-45
2023/01/04 10:10:13;;;;;;;;;;;;;;;11.51;100.00;101509.03;5068802;28;19920;-44
2023/01/04 10:12:44;;;;;;;;;;;;;;;11.51;100.00;101496.16;5068448;28;20423;-43
2023/01/04 10:15:15;;;;;;;;;;;;;;;11.52;100.00;101495.31;5069954;28;20284;-43
2023/01/04 10:17:46;;;;;;;;;;;;;;;11.52;100.00;101509.91;5060780;28;20359;-44
2023/01/04 10:20:29;;;;;;;;;;;;;;;11.52;100.00;101500.47;5070060;28;19912;-45
2023/01/04 10:22:54;;;;;;;;;;;;;;;11.53;100.00;101512.56;5064991;28;19939;-49
2023/01/04 10:25:19;;;;;;;;;;;;;;;11.53;100.00;101494.53;5067441;28;20377;-46
2023/01/04 10:28:05;;;;;;;;;;;;;;;11.52;100.00;101492.75;5067750;28;19912;-46
2023/01/04 10:30:46;;;;;;;;;;;;;;;11.53;100.00;101494.53;5072775;28;19912;-48
2023/01/04 10:33:34;;;;;;;;;;;;;;;11.52;100.00;101492.75;5067298;28;20298;-48
2023/01/04 10:36:00;;;;;;;;;;;;;;;11.53;100.00;101494.53;5069833;28;19912;-45
2023/01/04 10:38:27;;;;;;;;;;;;;;;11.54;100.00;101495.41;5073362;28;20292;-47
2023/01/04 10:40:54;;;;;;;;;;;;;;;11.55;100.00;101492.00;5082405;28;19919;-47
2023/01/04 10:43:34;;;;;;;;;;;;;;;11.55;100.00;101494.56;5068960;28;19915;-48
2023/01/04 10:46:03;;;;;;;;;;;;;;;11.54;100.00;101485.09;5066998;28;19916;-46
2023/01/04 10:48:37;;;;;;;;;;;;;;;11.55;100.00;101489.41;5069687;28;19914;-41
2023/01/04 10:51:05;;;;;;;;;;;;;;;11.56;100.00;101478.28;5065253;28;19947;-46
2023/01/04 10:53:47;;;;;;;;;;;;;;;11.55;100.00;101482.56;5069321;28;19923;-45
2023/01/04 10:56:12;;;;;;;;;;;;;;;11.56;100.00;101483.44;5063000;28;19917;-45
2023/01/04 10:58:41;;;;;;;;;;;;;;;11.56;100.00;101480.84;5067459;28;19923;-45
2023/01/04 11:01:11;;;;;;;;;;;;;;;11.56;100.00;101483.44;5066299;28;19962;-53
2023/01/04 11:03:52;;;;;;;;;;;;;;;11.58;100.00;101486.94;5062178;28;19912;-48
2023/01/04 11:06:22;;;;;;;;;;;;;;;11.59;100.00;101491.28;5063434;28;19916;-48
2023/01/04 11:09:01;;;;;;;;;;;;;;;11.60;100.00;101494.72;5068322;28;20329;-48
2023/01/04 11:11:29;;;;;;;;;;;;;;;11.61;100.00;101483.59;5066247;28;20404;-46
2023/01/04 11:13:54;;;;;;;;;;;;;;;11.61;100.00;101484.47;5065903;28;19913;-45
2023/01/04 11:16:20;;;;;;;;;;;;;;;11.61;100.00;101475.88;5094350;27;19924;-46
2023/01/04 11:18:47;;;;;;;;;;;;;;;11.61;100.00;101475.88;5068886;28;20439;-47
2023/01/04 11:21:13;;;;;;;;;;;;;;;11.61;100.00;101481.91;5068527;28;19947;-44
2023/01/04 11:23:39;;;;;;;;;;;;;;;11.62;100.00;101478.50;5063914;28;19921;-48
2023/01/04 11:26:17;;;;;;;;;;;;;;;11.62;100.00;101477.63;5070255;28;19924;-45
2023/01/04 11:28:50;;;;;;;;;;;;;;;11.62;100.00;101482.78;5070029;28;22085;-47
2023/01/04 11:31:21;;;;;;;;;;;;;;;11.63;100.00;101476.78;5064573;28;19916;-46
2023/01/04 11:33:50;;;;;;;;;;;;;;;11.63;100.00;101489.66;5069711;28;19924;-46
2023/01/04 11:36:31;;;;;;;;;;;;;;;11.65;100.00;101481.19;5065061;28;20406;-45
2023/01/04 11:38:57;;;;;;;;;;;;;;;11.67;100.00;101483.81;5068473;28;19928;-44
2023/01/04 11:41:22;;;;;;;;;;;;;;;11.66;100.00;101503.53;5065486;28;19931;-46
2023/01/04 11:44:02;;;;;;;;;;;;;;;11.67;100.00;101489.81;5067981;28;19916;-51
2023/01/04 11:46:28;;;;;;;;;;;;;;;11.69;100.00;101482.16;5066204;28;19922;-45
2023/01/04 11:48:53;;;;;;;;;;;;;;;11.67;100.00;101481.22;5070601;28;19916;-46
2023/01/04 11:51:19;;;;;;;;;;;;;;;11.68;100.00;101498.44;5063006;28;19920;-44
2023/01/04 11:53:44;;;;;;;;;;;;;;;11.68;100.00;101485.56;5058278;28;19939;-46
2023/01/04 11:56:12;;;;;;;;;;;;;;;11.68;100.00;101488.13;5068618;28;19919;-46
2023/01/04 11:58:37;;;;;;;;;;;;;;;11.70;100.00;101486.47;5072502;28;19963;-46
2023/01/04 12:01:03;;;;;;;;;;;;;;;11.72;100.00;101490.00;5068106;28;19964;-45
2023/01/04 12:03:29;;;;;;;;;;;;;;;11.72;100.00;101487.41;5069647;28;20002;-45
2023/01/04 12:05:55;;;;;;;;;;;;;;;11.72;100.00;101493.44;5071197;28;21781;-45
2023/01/04 12:08:23;;;;;;;;;;;;;;;11.72;100.00;101485.72;5065809;28;19920;-47
2023/01/04 12:10:48;;;;;;;;;;;;;;;11.74;100.00;101481.47;5071520;28;19966;-47
2023/01/04 12:13:13;;;;;;;;;;;;;;;11.75;100.00;101484.91;5067868;28;19967;-45
2023/01/04 12:15:39;;;;;;;;;;;;;;;11.74;100.00;101486.63;5068611;28;19920;-45
2023/01/04 12:18:11;;;;;;;;;;;;;;;11.76;100.00;101471.22;5078250;28;19920;-45
2023/01/04 12:20:37;;;;;;;;;;;;;;;11.79;100.00;101479.06;5079462;28;20446;-45
2023/01/04 12:23:02;;;;;;;;;;;;;;;11.78;100.00;101482.47;5077163;28;19916;-46
2023/01/04 12:25:49;;;;;;;;;;;;;;;11.78;100.00;101467.88;5079126;28;19920;-48
2023/01/04 12:28:27;;;;;;;;;;;;;;;11.79;100.00;101477.34;5070048;28;19935;-47
2023/01/04 12:30:52;;;;;;;;;;;;;;;11.82;100.00;101479.16;5076634;28;19916;-45
2023/01/04 12:33:30;;;;;;;;;;;;;;;11.83;100.00;101478.38;5072268;28;19923;-48
2023/01/04 12:35:59;;;;;;;;;;;;;;;11.84;100.00;101472.38;5071891;28;19912;-45
2023/01/04 12:38:43;;;;;;;;;;;;;;;11.85;100.00;101476.72;5074696;28;19920;-43
2023/01/04 12:41:09;;;;;;;;;;;;;;;11.86;100.00;101478.47;5075547;28;19919;-47
2023/01/04 12:43:37;;;;;;;;;;;;;;;11.89;100.00;101488.88;5070561;28;19928;-45
2023/01/04 12:49:21;;;;;;;;;;;;;;;11.90;100.00;101467.44;5065039;28;19927;-43
2023/01/04 12:51:47;;;;;;;;;;;;;;;11.92;100.00;101467.47;5066193;28;19916;-45
2023/01/04 12:54:22;;;;;;;;;;;;;;;11.94;100.00;101460.66;5062762;28;19961;-44
2023/01/04 12:57:06;;;;;;;;;;;;;;;11.95;100.00;101464.97;5063759;28;20388;-47
2023/01/04 12:59:33;;;;;;;;;;;;;;;11.95;100.00;101459.81;5066124;28;19912;-45
2023/01/04 13:02:14;;;;;;;;;;;;;;;11.96;100.00;101461.59;5067224;28;19965;-43
2023/01/04 13:04:40;;;;;;;;;;;;;;;11.98;100.00;101453.06;5064118;28;19928;-43
2023/01/04 13:07:13;;;;;;;;;;;;;;;11.99;100.00;101451.38;5068464;28;19916;-47
2023/01/04 13:09:42;;;;;;;;;;;;;;;12.00;100.00;101453.13;5061103;28;20385;-45
2023/01/04 13:12:13;;;;;;;;;;;;;;;12.00;100.00;101446.25;5055359;28;19913;-46
2023/01/04 13:14:42;;;;;;;;;;;;;;;12.01;100.00;101447.13;5066215;28;19970;-48
2023/01/04 13:17:12;;;;;;;;;;;;;;;12.00;100.00;101451.41;5064589;28;19920;-45
2023/01/04 13:19:38;;;;;;;;;;;;;;;12.02;100.00;101451.50;5062944;28;19961;-45
2023/01/04 13:22:09;;;;;;;;;;;;;;;12.02;100.00;101454.06;5067851;28;20278;-47
2023/01/04 13:24:35;;;;;;;;;;;;;;;12.03;100.00;101458.38;5063117;28;20327;-47
2023/01/04 13:27:05;;;;;;;;;;;;;;;12.02;100.00;101459.22;5068512;28;19912;-46